Share

Salcha, AK (99714)

7:53 AM AKDT on April 23, 2014 (GMT -0800)
Allen Army Air Field (PABI) Elev 1306 ft | 63.99 °N, 145.72 °W | Change Station

Current weather conditions updated 1 hour ago

Partly Cloudy
Partly Cloudy
29 °F
Feels Like 29 °F
N
0
Wind Variable Wind from North
Sunrise 5:38 AM
Sunset 9:45 PM
Moon Waning Crescent

Today is forecast to be Much Cooler than yesterday.

Pressure 29.78 in
Visibility 10.0 miles
Clouds Few 9000 ft
Dew Point 17 °F
Humidity 61%
Rainfall 0.00 in
Snow Depth 5 in , 37 in
UV 0 out of 16
Pollen Not available.
Air Quality Not available.
Flu Activity Sporadic
METAR PABI 231453Z 00000KT 10SM FEW090 M02/M08 A2973 RMK AO2 SLP082 T10171083 56004

More Conditions Fewer Conditions

Pressure 29.78 in
Visibility 10.0 miles
Clouds Few 9000 ft
Dew Point 17 °F
Humidity 61%
Rainfall 0.00 in
Snow Depth 5 in , 37 in
UV 0 out of 16
Pollen Not available.
Air Quality Not available.
Flu Activity Sporadic
METAR PABI 231453Z 00000KT 10SM FEW090 M02/M08 A2973 RMK AO2 SLP082 T10171083 56004

More Conditions Fewer Conditions

10-Day Weather Forecast

Almanac

Astronomy

Apr. 23, 2014 Rise Set
Actual Time 5:38 AM AKDT 9:45 PM AKDT
Civil Twilight 4:34 AM AKDT 10:49 PM AKDT
Nautical Twilight 2:35 AM AKDT 12:59 AM AKDT
Astronomical Twilight Sun does not rise Sun does not rise
Moon 4:28 AM AKDT 1:58 PM AKDT
Length of Visible Light 18h 14m
Length of Day
16h 07m
Tomorrow will be 6m 55s longer.
Waning Crescent, 35% of the Moon is Illuminated
Today
Waning Crescent
Apr 29
New
May 6
First Quarter
May 14
Full
May 21
Last Quarter

Today's Extremes

State Highs State Lows

Community

  • spring flowers
    spring flowers
  • Earth Day Spectrum Ove' Blue
    Earth Day Spectrum Ove' Blue
  • BARN B&W
    BARN B&W
  • April Sunset
    April Sunset
  • Waiting..
    Waiting..

WunderPhotos

Upload Photos

1,704,316 photos uploaded!

Nearby

Snow Depth

Station Depth Elevation
Teuchet Creek 5 in 1640 ft
Munson Ridge 37 in 3100 ft
Monument Creek 10 in 1850 ft
Upper Chena 31 in 2850 ft
Mt. Ryan 21 in 2800 ft

Coastal Water Temperatures

Place Temperature
No Stations Reporting

Earthquake Activity

City Distance Mag. Time & Date
No recent earthquake activity has been reported nearby.
Minimum magnitude displayed is 2.5.

Nearby Weather Stations

Station Location Temp. Windchill Dew Point Humidity Wind Precip. Elev Updated Type
RAWS SALCHA AK, Salcha, AK 23 °F 23 °F 21 °F 91% North  at  0 mph 0.00 in / hr 1000 ft 6:52 AM AKDT MADIS

Show More Stations Show Fewer Stations

What do you think?

We're not finished. Please let us know what you like, what you don't like, and what you are still missing.